sensor_id;sensor_type;location;lat;lon;timestamp;P1;durP1;ratioP1;P2;durP2;ratioP2
15331;SDS011;7766;51.534;6.722;2023-04-08T00:00:08;16.90;;;13.80;;
15331;SDS011;7766;51.534;6.722;2023-04-08T00:01:10;16.23;;;12.87;;
15331;SDS011;7766;51.534;6.722;2023-04-08T00:02:11;17.47;;;14.20;;
15331;SDS011;7766;51.534;6.722;2023-04-08T00:03:12;17.07;;;13.67;;
15331;SDS011;7766;51.534;6.722;2023-04-08T00:04:13;16.73;;;13.80;;
15331;SDS011;7766;51.534;6.722;2023-04-08T00:05:14;18.17;;;14.80;;
15331;SDS011;7766;51.534;6.722;2023-04-08T00:06:15;18.40;;;13.80;;
15331;SDS011;7766;51.534;6.722;2023-04-08T00:07:16;16.70;;;13.90;;
15331;SDS011;7766;51.534;6.722;2023-04-08T00:08:17;19.27;;;14.67;;
15331;SDS011;7766;51.534;6.722;2023-04-08T00:09:18;17.43;;;14.20;;
15331;SDS011;7766;51.534;6.722;2023-04-08T00:10:20;15.70;;;13.00;;
15331;SDS011;7766;51.534;6.722;2023-04-08T00:11:21;17.73;;;14.30;;
15331;SDS011;7766;51.534;6.722;2023-04-08T00:12:21;16.73;;;13.77;;
15331;SDS011;7766;51.534;6.722;2023-04-08T00:13:22;16.47;;;13.43;;
15331;SDS011;7766;51.534;6.722;2023-04-08T00:14:25;16.17;;;14.20;;
15331;SDS011;7766;51.534;6.722;2023-04-08T00:15:26;16.63;;;13.70;;
15331;SDS011;7766;51.534;6.722;2023-04-08T00:16:27;16.43;;;13.87;;
15331;SDS011;7766;51.534;6.722;2023-04-08T00:17:28;15.87;;;13.43;;
15331;SDS011;7766;51.534;6.722;2023-04-08T00:18:29;18.83;;;13.77;;
15331;SDS011;7766;51.534;6.722;2023-04-08T00:19:30;17.63;;;14.23;;
15331;SDS011;7766;51.534;6.722;2023-04-08T00:20:30;16.50;;;13.23;;
15331;SDS011;7766;51.534;6.722;2023-04-08T00:21:31;15.50;;;12.80;;
15331;SDS011;7766;51.534;6.722;2023-04-08T00:22:33;17.57;;;14.87;;
15331;SDS011;7766;51.534;6.722;2023-04-08T00:23:34;16.77;;;13.93;;
15331;SDS011;7766;51.534;6.722;2023-04-08T00:24:35;15.57;;;13.33;;
15331;SDS011;7766;51.534;6.722;2023-04-08T00:25:36;18.73;;;15.13;;
15331;SDS011;7766;51.534;6.722;2023-04-08T00:26:37;15.43;;;13.63;;
15331;SDS011;7766;51.534;6.722;2023-04-08T00:27:38;15.03;;;12.67;;
15331;SDS011;7766;51.534;6.722;2023-04-08T00:28:39;16.73;;;14.20;;
15331;SDS011;7766;51.534;6.722;2023-04-08T00:29:41;17.93;;;13.80;;
15331;SDS011;7766;51.534;6.722;2023-04-08T00:30:42;15.60;;;12.83;;
15331;SDS011;7766;51.534;6.722;2023-04-08T00:31:43;15.93;;;13.43;;
15331;SDS011;7766;51.534;6.722;2023-04-08T00:32:44;16.07;;;13.17;;
15331;SDS011;7766;51.534;6.722;2023-04-08T00:33:45;15.33;;;12.97;;
15331;SDS011;7766;51.534;6.722;2023-04-08T00:34:46;17.07;;;12.73;;
15331;SDS011;7766;51.534;6.722;2023-04-08T00:35:48;15.70;;;13.60;;
15331;SDS011;7766;51.534;6.722;2023-04-08T00:36:49;17.07;;;13.63;;
15331;SDS011;7766;51.534;6.722;2023-04-08T00:37:50;15.67;;;13.23;;
15331;SDS011;7766;51.534;6.722;2023-04-08T00:38:51;17.73;;;14.30;;
15331;SDS011;7766;51.534;6.722;2023-04-08T00:39:52;16.83;;;14.00;;
15331;SDS011;7766;51.534;6.722;2023-04-08T00:40:54;14.67;;;13.07;;
15331;SDS011;7766;51.534;6.722;2023-04-08T00:41:54;17.00;;;14.47;;
15331;SDS011;7766;51.534;6.722;2023-04-08T00:42:56;16.90;;;13.77;;
15331;SDS011;7766;51.534;6.722;2023-04-08T00:43:57;15.37;;;13.27;;
15331;SDS011;7766;51.534;6.722;2023-04-08T00:44:58;17.53;;;15.03;;
15331;SDS011;7766;51.534;6.722;2023-04-08T00:45:59;16.77;;;13.93;;
15331;SDS011;7766;51.534;6.722;2023-04-08T00:47:01;17.53;;;15.00;;
15331;SDS011;7766;51.534;6.722;2023-04-08T00:48:03;16.10;;;13.47;;
15331;SDS011;7766;51.534;6.722;2023-04-08T00:49:05;16.93;;;13.17;;
15331;SDS011;7766;51.534;6.722;2023-04-08T00:50:07;17.43;;;14.87;;
15331;SDS011;7766;51.534;6.722;2023-04-08T00:51:11;18.23;;;13.83;;
15331;SDS011;7766;51.534;6.722;2023-04-08T00:52:12;18.23;;;13.97;;
15331;SDS011;7766;51.534;6.722;2023-04-08T00:53:14;18.80;;;14.90;;
15331;SDS011;7766;51.534;6.722;2023-04-08T00:54:17;15.77;;;13.43;;
15331;SDS011;7766;51.534;6.722;2023-04-08T00:55:18;18.33;;;14.27;;
15331;SDS011;7766;51.534;6.722;2023-04-08T00:56:19;18.23;;;14.13;;
15331;SDS011;7766;51.534;6.722;2023-04-08T00:57:21;17.33;;;14.67;;
15331;SDS011;7766;51.534;6.722;2023-04-08T00:58:22;17.80;;;13.30;;
15331;SDS011;7766;51.534;6.722;2023-04-08T00:59:23;18.27;;;14.80;;
15331;SDS011;7766;51.534;6.722;2023-04-08T01:00:26;17.37;;;14.27;;
15331;SDS011;7766;51.534;6.722;2023-04-08T01:01:32;17.03;;;14.17;;
15331;SDS011;7766;51.534;6.722;2023-04-08T01:03:00;18.67;;;14.23;;
15331;SDS011;7766;51.534;6.722;2023-04-08T01:04:16;19.33;;;15.23;;
15331;SDS011;7766;51.534;6.722;2023-04-08T01:05:39;17.27;;;14.30;;
15331;SDS011;7766;51.534;6.722;2023-04-08T01:07:16;18.93;;;15.50;;
15331;SDS011;7766;51.534;6.722;2023-04-08T01:08:37;18.10;;;14.40;;
15331;SDS011;7766;51.534;6.722;2023-04-08T01:09:44;19.90;;;15.17;;
15331;SDS011;7766;51.534;6.722;2023-04-08T01:10:47;17.20;;;14.17;;
15331;SDS011;7766;51.534;6.722;2023-04-08T01:11:52;19.23;;;15.17;;
15331;SDS011;7766;51.534;6.722;2023-04-08T01:12:56;18.53;;;15.00;;
15331;SDS011;7766;51.534;6.722;2023-04-08T01:14:00;18.27;;;15.20;;
15331;SDS011;7766;51.534;6.722;2023-04-08T01:15:05;17.80;;;15.03;;
15331;SDS011;7766;51.534;6.722;2023-04-08T01:16:11;18.70;;;15.47;;
15331;SDS011;7766;51.534;6.722;2023-04-08T01:17:14;17.60;;;14.27;;
15331;SDS011;7766;51.534;6.722;2023-04-08T01:18:18;17.23;;;14.20;;
15331;SDS011;7766;51.534;6.722;2023-04-08T01:19:26;18.97;;;15.57;;
15331;SDS011;7766;51.534;6.722;2023-04-08T01:20:30;16.27;;;13.97;;
15331;SDS011;7766;51.534;6.722;2023-04-08T01:21:32;16.57;;;14.27;;
15331;SDS011;7766;51.534;6.722;2023-04-08T01:22:45;16.40;;;14.47;;
15331;SDS011;7766;51.534;6.722;2023-04-08T01:24:05;17.63;;;14.30;;
15331;SDS011;7766;51.534;6.722;2023-04-08T01:25:16;17.23;;;14.70;;
15331;SDS011;7766;51.534;6.722;2023-04-08T01:26:24;20.47;;;15.83;;
15331;SDS011;7766;51.534;6.722;2023-04-08T01:27:26;19.67;;;14.83;;
15331;SDS011;7766;51.534;6.722;2023-04-08T01:28:29;15.37;;;13.50;;
15331;SDS011;7766;51.534;6.722;2023-04-08T01:29:31;17.23;;;13.47;;
15331;SDS011;7766;51.534;6.722;2023-04-08T01:30:37;17.33;;;13.67;;
15331;SDS011;7766;51.534;6.722;2023-04-08T01:31:39;17.53;;;14.37;;
15331;SDS011;7766;51.534;6.722;2023-04-08T01:32:42;17.97;;;14.40;;
15331;SDS011;7766;51.534;6.722;2023-04-08T01:33:45;18.77;;;15.37;;
15331;SDS011;7766;51.534;6.722;2023-04-08T01:34:48;18.33;;;14.47;;
15331;SDS011;7766;51.534;6.722;2023-04-08T01:35:50;19.00;;;14.97;;
15331;SDS011;7766;51.534;6.722;2023-04-08T01:36:53;19.70;;;14.90;;
15331;SDS011;7766;51.534;6.722;2023-04-08T01:37:57;17.53;;;14.53;;
15331;SDS011;7766;51.534;6.722;2023-04-08T01:38:59;18.13;;;14.93;;
15331;SDS011;7766;51.534;6.722;2023-04-08T01:40:02;19.27;;;15.47;;
15331;SDS011;7766;51.534;6.722;2023-04-08T01:41:07;17.67;;;14.93;;
15331;SDS011;7766;51.534;6.722;2023-04-08T01:42:10;19.10;;;14.97;;
15331;SDS011;7766;51.534;6.722;2023-04-08T01:43:13;19.07;;;15.37;;
15331;SDS011;7766;51.534;6.722;2023-04-08T01:44:15;18.93;;;15.40;;
15331;SDS011;7766;51.534;6.722;2023-04-08T01:45:17;20.50;;;15.57;;
15331;SDS011;7766;51.534;6.722;2023-04-08T01:46:19;17.97;;;15.00;;
15331;SDS011;7766;51.534;6.722;2023-04-08T01:47:21;19.57;;;15.60;;
15331;SDS011;7766;51.534;6.722;2023-04-08T01:48:23;19.53;;;15.07;;
15331;SDS011;7766;51.534;6.722;2023-04-08T01:49:25;19.93;;;15.17;;
15331;SDS011;7766;51.534;6.722;2023-04-08T01:50:27;16.63;;;14.33;;
15331;SDS011;7766;51.534;6.722;2023-04-08T01:51:29;16.73;;;14.03;;
15331;SDS011;7766;51.534;6.722;2023-04-08T01:52:31;17.83;;;13.35;;
15331;SDS011;7766;51.534;6.722;2023-04-08T01:53:36;17.97;;;14.67;;
15331;SDS011;7766;51.534;6.722;2023-04-08T01:54:37;17.93;;;14.67;;
15331;SDS011;7766;51.534;6.722;2023-04-08T01:55:39;18.27;;;15.07;;
15331;SDS011;7766;51.534;6.722;2023-04-08T01:56:41;17.70;;;14.27;;
15331;SDS011;7766;51.534;6.722;2023-04-08T01:57:49;16.60;;;13.57;;
15331;SDS011;7766;51.534;6.722;2023-04-08T01:58:51;17.97;;;13.73;;
15331;SDS011;7766;51.534;6.722;2023-04-08T01:59:59;18.73;;;13.97;;
15331;SDS011;7766;51.534;6.722;2023-04-08T02:01:09;18.13;;;14.83;;
15331;SDS011;7766;51.534;6.722;2023-04-08T02:02:11;19.10;;;15.53;;
15331;SDS011;7766;51.534;6.722;2023-04-08T02:03:16;18.00;;;15.47;;
15331;SDS011;7766;51.534;6.722;2023-04-08T02:04:18;19.67;;;14.93;;
15331;SDS011;7766;51.534;6.722;2023-04-08T02:05:19;18.10;;;14.60;;
15331;SDS011;7766;51.534;6.722;2023-04-08T02:06:20;19.10;;;14.70;;
15331;SDS011;7766;51.534;6.722;2023-04-08T02:07:22;18.93;;;14.07;;
15331;SDS011;7766;51.534;6.722;2023-04-08T02:08:24;17.43;;;14.33;;
15331;SDS011;7766;51.534;6.722;2023-04-08T02:09:25;17.73;;;14.70;;
15331;SDS011;7766;51.534;6.722;2023-04-08T02:10:26;18.33;;;15.07;;
15331;SDS011;7766;51.534;6.722;2023-04-08T02:11:27;20.13;;;15.00;;
15331;SDS011;7766;51.534;6.722;2023-04-08T02:12:28;19.67;;;15.60;;
15331;SDS011;7766;51.534;6.722;2023-04-08T02:13:29;18.10;;;15.00;;
15331;SDS011;7766;51.534;6.722;2023-04-08T02:14:31;18.60;;;15.23;;
15331;SDS011;7766;51.534;6.722;2023-04-08T02:15:33;16.07;;;13.80;;
15331;SDS011;7766;51.534;6.722;2023-04-08T02:16:57;17.70;;;14.67;;
15331;SDS011;7766;51.534;6.722;2023-04-08T02:18:05;17.97;;;14.23;;
15331;SDS011;7766;51.534;6.722;2023-04-08T02:19:17;18.10;;;14.60;;
15331;SDS011;7766;51.534;6.722;2023-04-08T02:20:32;17.50;;;14.37;;
15331;SDS011;7766;51.534;6.722;2023-04-08T02:21:43;17.43;;;13.70;;
15331;SDS011;7766;51.534;6.722;2023-04-08T02:22:52;18.90;;;14.57;;
15331;SDS011;7766;51.534;6.722;2023-04-08T02:24:18;18.02;;;14.73;;
15331;SDS011;7766;51.534;6.722;2023-04-08T02:25:22;17.50;;;14.03;;
15331;SDS011;7766;51.534;6.722;2023-04-08T02:26:24;18.47;;;14.87;;
15331;SDS011;7766;51.534;6.722;2023-04-08T02:27:26;16.73;;;13.77;;
15331;SDS011;7766;51.534;6.722;2023-04-08T02:28:28;18.90;;;15.00;;
15331;SDS011;7766;51.534;6.722;2023-04-08T02:29:32;17.37;;;14.40;;
15331;SDS011;7766;51.534;6.722;2023-04-08T02:30:47;17.25;;;15.10;;
15331;SDS011;7766;51.534;6.722;2023-04-08T02:31:51;19.47;;;14.93;;
15331;SDS011;7766;51.534;6.722;2023-04-08T02:32:53;17.40;;;13.77;;
15331;SDS011;7766;51.534;6.722;2023-04-08T02:33:57;18.73;;;14.37;;
15331;SDS011;7766;51.534;6.722;2023-04-08T02:34:58;18.63;;;14.60;;
15331;SDS011;7766;51.534;6.722;2023-04-08T02:36:02;18.40;;;14.27;;
15331;SDS011;7766;51.534;6.722;2023-04-08T02:37:06;18.20;;;13.97;;
15331;SDS011;7766;51.534;6.722;2023-04-08T02:38:08;19.17;;;13.73;;
15331;SDS011;7766;51.534;6.722;2023-04-08T02:39:10;17.97;;;14.73;;
15331;SDS011;7766;51.534;6.722;2023-04-08T02:41:28;17.63;;;13.37;;
15331;SDS011;7766;51.534;6.722;2023-04-08T02:42:29;18.10;;;14.07;;
15331;SDS011;7766;51.534;6.722;2023-04-08T02:43:30;18.70;;;14.63;;
15331;SDS011;7766;51.534;6.722;2023-04-08T02:44:31;17.65;;;14.05;;
15331;SDS011;7766;51.534;6.722;2023-04-08T02:45:40;17.37;;;13.30;;
15331;SDS011;7766;51.534;6.722;2023-04-08T02:46:41;16.27;;;13.95;;
15331;SDS011;7766;51.534;6.722;2023-04-08T02:47:43;16.42;;;13.90;;
15331;SDS011;7766;51.534;6.722;2023-04-08T02:48:44;16.70;;;13.10;;
15331;SDS011;7766;51.534;6.722;2023-04-08T02:49:45;16.10;;;13.27;;
15331;SDS011;7766;51.534;6.722;2023-04-08T02:50:45;16.93;;;14.30;;
15331;SDS011;7766;51.534;6.722;2023-04-08T02:51:46;17.17;;;13.87;;
15331;SDS011;7766;51.534;6.722;2023-04-08T02:52:47;15.73;;;13.97;;
15331;SDS011;7766;51.534;6.722;2023-04-08T02:53:48;19.00;;;14.53;;
15331;SDS011;7766;51.534;6.722;2023-04-08T02:54:50;16.10;;;13.15;;
15331;SDS011;7766;51.534;6.722;2023-04-08T02:55:51;19.53;;;14.43;;
15331;SDS011;7766;51.534;6.722;2023-04-08T02:56:52;19.17;;;14.88;;
15331;SDS011;7766;51.534;6.722;2023-04-08T02:57:53;19.98;;;15.48;;
15331;SDS011;7766;51.534;6.722;2023-04-08T02:58:54;23.20;;;16.37;;
15331;SDS011;7766;51.534;6.722;2023-04-08T02:59:55;19.17;;;15.03;;
15331;SDS011;7766;51.534;6.722;2023-04-08T03:00:56;18.53;;;15.37;;
15331;SDS011;7766;51.534;6.722;2023-04-08T03:01:57;17.43;;;14.30;;
15331;SDS011;7766;51.534;6.722;2023-04-08T03:02:58;21.23;;;15.90;;
15331;SDS011;7766;51.534;6.722;2023-04-08T03:03:59;17.80;;;14.45;;
15331;SDS011;7766;51.534;6.722;2023-04-08T03:05:00;25.83;;;15.00;;
15331;SDS011;7766;51.534;6.722;2023-04-08T03:06:02;19.13;;;14.93;;
15331;SDS011;7766;51.534;6.722;2023-04-08T03:07:03;21.95;;;15.82;;
15331;SDS011;7766;51.534;6.722;2023-04-08T03:08:04;62.93;;;17.27;;
15331;SDS011;7766;51.534;6.722;2023-04-08T03:09:05;19.73;;;15.52;;
15331;SDS011;7766;51.534;6.722;2023-04-08T03:10:07;32.55;;;15.95;;
15331;SDS011;7766;51.534;6.722;2023-04-08T03:11:08;69.03;;;16.77;;
15331;SDS011;7766;51.534;6.722;2023-04-08T03:12:09;79.00;;;16.92;;
15331;SDS011;7766;51.534;6.722;2023-04-08T03:13:10;116.17;;;18.70;;
15331;SDS011;7766;51.534;6.722;2023-04-08T03:14:11;75.70;;;17.63;;
15331;SDS011;7766;51.534;6.722;2023-04-08T03:15:12;69.10;;;16.33;;
15331;SDS011;7766;51.534;6.722;2023-04-08T03:16:13;108.37;;;19.37;;
15331;SDS011;7766;51.534;6.722;2023-04-08T03:17:14;83.88;;;18.08;;
15331;SDS011;7766;51.534;6.722;2023-04-08T03:18:15;41.50;;;15.13;;
15331;SDS011;7766;51.534;6.722;2023-04-08T03:19:16;62.15;;;16.77;;
15331;SDS011;7766;51.534;6.722;2023-04-08T03:20:17;57.70;;;16.93;;
15331;SDS011;7766;51.534;6.722;2023-04-08T03:21:18;110.03;;;17.73;;
15331;SDS011;7766;51.534;6.722;2023-04-08T03:22:19;173.80;;;20.20;;
15331;SDS011;7766;51.534;6.722;2023-04-08T03:23:20;88.73;;;16.10;;
15331;SDS011;7766;51.534;6.722;2023-04-08T03:24:21;86.57;;;16.87;;
15331;SDS011;7766;51.534;6.722;2023-04-08T03:25:22;153.38;;;18.70;;
15331;SDS011;7766;51.534;6.722;2023-04-08T03:26:23;116.67;;;18.20;;
15331;SDS011;7766;51.534;6.722;2023-04-08T03:27:26;70.45;;;16.17;;
15331;SDS011;7766;51.534;6.722;2023-04-08T03:28:27;135.77;;;18.20;;
15331;SDS011;7766;51.534;6.722;2023-04-08T03:29:28;74.57;;;16.93;;
15331;SDS011;7766;51.534;6.722;2023-04-08T03:30:29;86.25;;;16.15;;
15331;SDS011;7766;51.534;6.722;2023-04-08T03:31:31;59.88;;;15.20;;
15331;SDS011;7766;51.534;6.722;2023-04-08T03:32:32;70.90;;;17.23;;
15331;SDS011;7766;51.534;6.722;2023-04-08T03:33:33;77.80;;;16.42;;
15331;SDS011;7766;51.534;6.722;2023-04-08T03:34:34;71.93;;;16.27;;
15331;SDS011;7766;51.534;6.722;2023-04-08T03:35:35;45.78;;;16.30;;
15331;SDS011;7766;51.534;6.722;2023-04-08T03:36:37;111.03;;;19.13;;
15331;SDS011;7766;51.534;6.722;2023-04-08T03:37:38;81.28;;;18.33;;
15331;SDS011;7766;51.534;6.722;2023-04-08T03:38:39;96.13;;;18.63;;
15331;SDS011;7766;51.534;6.722;2023-04-08T03:39:40;60.87;;;17.33;;
15331;SDS011;7766;51.534;6.722;2023-04-08T03:40:41;63.20;;;17.33;;
15331;SDS011;7766;51.534;6.722;2023-04-08T03:41:42;118.33;;;22.00;;
15331;SDS011;7766;51.534;6.722;2023-04-08T03:42:43;77.85;;;18.20;;
15331;SDS011;7766;51.534;6.722;2023-04-08T03:43:45;99.70;;;17.67;;
15331;SDS011;7766;51.534;6.722;2023-04-08T03:44:46;120.63;;;19.83;;
15331;SDS011;7766;51.534;6.722;2023-04-08T03:45:47;133.63;;;19.25;;
15331;SDS011;7766;51.534;6.722;2023-04-08T03:46:48;113.63;;;18.75;;
15331;SDS011;7766;51.534;6.722;2023-04-08T03:47:49;106.73;;;20.10;;
15331;SDS011;7766;51.534;6.722;2023-04-08T03:48:50;163.52;;;21.75;;
15331;SDS011;7766;51.534;6.722;2023-04-08T03:49:52;30.20;;;16.17;;
15331;SDS011;7766;51.534;6.722;2023-04-08T03:50:53;101.50;;;17.50;;
15331;SDS011;7766;51.534;6.722;2023-04-08T03:51:54;122.17;;;18.30;;
15331;SDS011;7766;51.534;6.722;2023-04-08T03:52:55;34.60;;;16.23;;
15331;SDS011;7766;51.534;6.722;2023-04-08T03:53:56;139.07;;;22.08;;
15331;SDS011;7766;51.534;6.722;2023-04-08T03:54:57;50.63;;;17.00;;
15331;SDS011;7766;51.534;6.722;2023-04-08T03:55:58;92.87;;;17.47;;
15331;SDS011;7766;51.534;6.722;2023-04-08T03:57:00;53.53;;;15.35;;
15331;SDS011;7766;51.534;6.722;2023-04-08T03:58:01;36.90;;;15.07;;
15331;SDS011;7766;51.534;6.722;2023-04-08T03:59:02;91.83;;;16.90;;
15331;SDS011;7766;51.534;6.722;2023-04-08T04:00:03;72.43;;;15.97;;
15331;SDS011;7766;51.534;6.722;2023-04-08T04:01:05;78.85;;;16.48;;
15331;SDS011;7766;51.534;6.722;2023-04-08T04:02:06;80.68;;;17.10;;
15331;SDS011;7766;51.534;6.722;2023-04-08T04:03:07;61.40;;;16.67;;
15331;SDS011;7766;51.534;6.722;2023-04-08T04:04:11;61.75;;;17.25;;
15331;SDS011;7766;51.534;6.722;2023-04-08T04:05:12;94.78;;;17.23;;
15331;SDS011;7766;51.534;6.722;2023-04-08T04:06:13;97.93;;;17.00;;
15331;SDS011;7766;51.534;6.722;2023-04-08T04:07:14;89.75;;;16.33;;
15331;SDS011;7766;51.534;6.722;2023-04-08T04:08:15;83.78;;;17.40;;
15331;SDS011;7766;51.534;6.722;2023-04-08T04:09:16;82.40;;;16.80;;
15331;SDS011;7766;51.534;6.722;2023-04-08T04:10:17;90.30;;;17.63;;
15331;SDS011;7766;51.534;6.722;2023-04-08T04:11:18;52.40;;;15.40;;
15331;SDS011;7766;51.534;6.722;2023-04-08T04:12:20;97.82;;;16.67;;
15331;SDS011;7766;51.534;6.722;2023-04-08T04:13:21;97.40;;;17.50;;
15331;SDS011;7766;51.534;6.722;2023-04-08T04:14:22;138.93;;;18.63;;
15331;SDS011;7766;51.534;6.722;2023-04-08T04:15:23;59.88;;;16.15;;
15331;SDS011;7766;51.534;6.722;2023-04-08T04:16:24;108.63;;;17.38;;
15331;SDS011;7766;51.534;6.722;2023-04-08T04:17:25;154.03;;;18.80;;
15331;SDS011;7766;51.534;6.722;2023-04-08T04:18:26;93.40;;;17.00;;
15331;SDS011;7766;51.534;6.722;2023-04-08T04:19:30;51.37;;;16.03;;
15331;SDS011;7766;51.534;6.722;2023-04-08T04:20:31;56.65;;;16.45;;
15331;SDS011;7766;51.534;6.722;2023-04-08T04:21:32;36.17;;;16.60;;
15331;SDS011;7766;51.534;6.722;2023-04-08T04:22:33;31.83;;;15.65;;
15331;SDS011;7766;51.534;6.722;2023-04-08T04:23:34;90.50;;;18.53;;
15331;SDS011;7766;51.534;6.722;2023-04-08T04:24:35;37.45;;;16.15;;
15331;SDS011;7766;51.534;6.722;2023-04-08T04:25:36;37.77;;;14.80;;
15331;SDS011;7766;51.534;6.722;2023-04-08T04:26:40;25.00;;;15.63;;
15331;SDS011;7766;51.534;6.722;2023-04-08T04:27:41;22.65;;;16.33;;
15331;SDS011;7766;51.534;6.722;2023-04-08T04:28:42;33.00;;;15.90;;
15331;SDS011;7766;51.534;6.722;2023-04-08T04:29:43;55.73;;;16.50;;
15331;SDS011;7766;51.534;6.722;2023-04-08T04:30:44;84.55;;;17.88;;
15331;SDS011;7766;51.534;6.722;2023-04-08T04:31:45;109.97;;;18.50;;
15331;SDS011;7766;51.534;6.722;2023-04-08T04:32:46;133.37;;;20.07;;
15331;SDS011;7766;51.534;6.722;2023-04-08T04:33:47;98.57;;;18.08;;
15331;SDS011;7766;51.534;6.722;2023-04-08T04:34:48;51.53;;;15.95;;
15331;SDS011;7766;51.534;6.722;2023-04-08T04:35:49;129.77;;;17.70;;
15331;SDS011;7766;51.534;6.722;2023-04-08T04:36:50;112.25;;;19.90;;
15331;SDS011;7766;51.534;6.722;2023-04-08T04:37:51;72.83;;;15.23;;
15331;SDS011;7766;51.534;6.722;2023-04-08T04:38:52;80.07;;;15.23;;
15331;SDS011;7766;51.534;6.722;2023-04-08T04:39:53;68.90;;;16.13;;
15331;SDS011;7766;51.534;6.722;2023-04-08T04:40:54;30.63;;;15.60;;
15331;SDS011;7766;51.534;6.722;2023-04-08T04:41:56;79.28;;;18.20;;
15331;SDS011;7766;51.534;6.722;2023-04-08T04:42:57;34.20;;;15.57;;
15331;SDS011;7766;51.534;6.722;2023-04-08T04:43:58;144.00;;;18.80;;
15331;SDS011;7766;51.534;6.722;2023-04-08T04:45:00;31.25;;;16.80;;
15331;SDS011;7766;51.534;6.722;2023-04-08T04:46:01;45.38;;;16.25;;
15331;SDS011;7766;51.534;6.722;2023-04-08T04:47:05;115.05;;;19.38;;
15331;SDS011;7766;51.534;6.722;2023-04-08T04:48:06;56.03;;;16.87;;
15331;SDS011;7766;51.534;6.722;2023-04-08T04:49:07;90.70;;;17.03;;
15331;SDS011;7766;51.534;6.722;2023-04-08T04:50:08;79.80;;;16.40;;
15331;SDS011;7766;51.534;6.722;2023-04-08T04:51:10;68.30;;;17.05;;
15331;SDS011;7766;51.534;6.722;2023-04-08T04:52:11;83.70;;;17.05;;
15331;SDS011;7766;51.534;6.722;2023-04-08T04:53:12;52.92;;;15.80;;
15331;SDS011;7766;51.534;6.722;2023-04-08T04:54:13;46.03;;;14.97;;
15331;SDS011;7766;51.534;6.722;2023-04-08T04:55:14;49.70;;;15.68;;
15331;SDS011;7766;51.534;6.722;2023-04-08T04:56:15;109.40;;;17.55;;
15331;SDS011;7766;51.534;6.722;2023-04-08T04:57:16;62.95;;;16.60;;
15331;SDS011;7766;51.534;6.722;2023-04-08T04:58:17;87.67;;;16.70;;
15331;SDS011;7766;51.534;6.722;2023-04-08T04:59:18;62.97;;;16.52;;
15331;SDS011;7766;51.534;6.722;2023-04-08T05:00:19;42.55;;;15.57;;
15331;SDS011;7766;51.534;6.722;2023-04-08T05:01:20;33.40;;;16.38;;
15331;SDS011;7766;51.534;6.722;2023-04-08T05:02:21;21.07;;;15.43;;
15331;SDS011;7766;51.534;6.722;2023-04-08T05:03:22;20.98;;;15.80;;
15331;SDS011;7766;51.534;6.722;2023-04-08T05:04:23;52.72;;;16.40;;
15331;SDS011;7766;51.534;6.722;2023-04-08T05:05:25;36.72;;;16.13;;
15331;SDS011;7766;51.534;6.722;2023-04-08T05:06:26;36.33;;;15.88;;
15331;SDS011;7766;51.534;6.722;2023-04-08T05:07:27;56.78;;;15.25;;
15331;SDS011;7766;51.534;6.722;2023-04-08T05:08:28;31.10;;;15.10;;
15331;SDS011;7766;51.534;6.722;2023-04-08T05:09:30;33.00;;;16.00;;
15331;SDS011;7766;51.534;6.722;2023-04-08T05:10:31;20.23;;;14.95;;
15331;SDS011;7766;51.534;6.722;2023-04-08T05:11:32;26.23;;;14.95;;
15331;SDS011;7766;51.534;6.722;2023-04-08T05:12:33;24.67;;;15.73;;
15331;SDS011;7766;51.534;6.722;2023-04-08T05:13:34;20.23;;;14.90;;
15331;SDS011;7766;51.534;6.722;2023-04-08T05:14:35;20.08;;;14.48;;
15331;SDS011;7766;51.534;6.722;2023-04-08T05:15:36;18.37;;;14.43;;
15331;SDS011;7766;51.534;6.722;2023-04-08T05:16:37;22.48;;;15.05;;
15331;SDS011;7766;51.534;6.722;2023-04-08T05:17:38;21.27;;;15.07;;
15331;SDS011;7766;51.534;6.722;2023-04-08T05:18:39;19.42;;;13.85;;
15331;SDS011;7766;51.534;6.722;2023-04-08T05:19:40;23.20;;;14.93;;
15331;SDS011;7766;51.534;6.722;2023-04-08T05:20:41;26.95;;;14.82;;
15331;SDS011;7766;51.534;6.722;2023-04-08T05:21:42;18.75;;;14.75;;
15331;SDS011;7766;51.534;6.722;2023-04-08T05:22:43;28.03;;;14.47;;
15331;SDS011;7766;51.534;6.722;2023-04-08T05:23:44;33.03;;;14.55;;
15331;SDS011;7766;51.534;6.722;2023-04-08T05:24:45;48.55;;;14.60;;
15331;SDS011;7766;51.534;6.722;2023-04-08T05:25:46;28.13;;;13.90;;
15331;SDS011;7766;51.534;6.722;2023-04-08T05:26:47;35.88;;;14.18;;
15331;SDS011;7766;51.534;6.722;2023-04-08T05:27:51;20.75;;;13.98;;
15331;SDS011;7766;51.534;6.722;2023-04-08T05:28:52;36.40;;;14.68;;
15331;SDS011;7766;51.534;6.722;2023-04-08T05:29:53;24.35;;;14.60;;
15331;SDS011;7766;51.534;6.722;2023-04-08T05:30:54;28.27;;;13.85;;
15331;SDS011;7766;51.534;6.722;2023-04-08T05:31:55;34.97;;;14.33;;
15331;SDS011;7766;51.534;6.722;2023-04-08T05:32:56;28.98;;;14.45;;
15331;SDS011;7766;51.534;6.722;2023-04-08T05:33:57;25.27;;;14.50;;
15331;SDS011;7766;51.534;6.722;2023-04-08T05:35:00;28.35;;;14.18;;
15331;SDS011;7766;51.534;6.722;2023-04-08T05:36:02;24.35;;;13.55;;
15331;SDS011;7766;51.534;6.722;2023-04-08T05:37:03;22.17;;;13.53;;
15331;SDS011;7766;51.534;6.722;2023-04-08T05:38:04;19.58;;;13.85;;
15331;SDS011;7766;51.534;6.722;2023-04-08T05:39:06;37.53;;;15.25;;
15331;SDS011;7766;51.534;6.722;2023-04-08T05:40:07;23.60;;;13.67;;
15331;SDS011;7766;51.534;6.722;2023-04-08T05:41:08;23.58;;;13.00;;
15331;SDS011;7766;51.534;6.722;2023-04-08T05:42:09;36.47;;;14.65;;
15331;SDS011;7766;51.534;6.722;2023-04-08T05:43:12;26.52;;;14.38;;
15331;SDS011;7766;51.534;6.722;2023-04-08T05:44:13;16.73;;;14.27;;
15331;SDS011;7766;51.534;6.722;2023-04-08T05:45:14;24.33;;;14.20;;
15331;SDS011;7766;51.534;6.722;2023-04-08T05:46:15;27.85;;;14.23;;
15331;SDS011;7766;51.534;6.722;2023-04-08T05:47:16;28.38;;;14.23;;
15331;SDS011;7766;51.534;6.722;2023-04-08T05:48:17;61.17;;;16.33;;
15331;SDS011;7766;51.534;6.722;2023-04-08T05:49:18;25.73;;;15.20;;
15331;SDS011;7766;51.534;6.722;2023-04-08T05:50:19;19.65;;;15.23;;
15331;SDS011;7766;51.534;6.722;2023-04-08T05:51:21;21.15;;;14.90;;
15331;SDS011;7766;51.534;6.722;2023-04-08T05:52:22;23.30;;;14.97;;
15331;SDS011;7766;51.534;6.722;2023-04-08T05:53:23;78.55;;;16.30;;
15331;SDS011;7766;51.534;6.722;2023-04-08T05:54:24;57.78;;;15.18;;
15331;SDS011;7766;51.534;6.722;2023-04-08T05:55:25;19.23;;;14.40;;
15331;SDS011;7766;51.534;6.722;2023-04-08T05:56:26;25.98;;;14.55;;
15331;SDS011;7766;51.534;6.722;2023-04-08T05:57:27;19.88;;;15.25;;
15331;SDS011;7766;51.534;6.722;2023-04-08T05:58:28;19.88;;;14.88;;
15331;SDS011;7766;51.534;6.722;2023-04-08T05:59:29;23.23;;;15.63;;
15331;SDS011;7766;51.534;6.722;2023-04-08T06:00:30;28.17;;;14.80;;
15331;SDS011;7766;51.534;6.722;2023-04-08T06:01:31;16.90;;;13.85;;
15331;SDS011;7766;51.534;6.722;2023-04-08T06:02:33;19.67;;;14.27;;
15331;SDS011;7766;51.534;6.722;2023-04-08T06:03:34;17.45;;;14.50;;
15331;SDS011;7766;51.534;6.722;2023-04-08T06:04:35;20.80;;;15.50;;
15331;SDS011;7766;51.534;6.722;2023-04-08T06:05:36;21.87;;;14.33;;
15331;SDS011;7766;51.534;6.722;2023-04-08T06:06:37;36.70;;;15.17;;
15331;SDS011;7766;51.534;6.722;2023-04-08T06:07:39;18.50;;;14.25;;
15331;SDS011;7766;51.534;6.722;2023-04-08T06:08:40;55.70;;;14.93;;
15331;SDS011;7766;51.534;6.722;2023-04-08T06:09:41;37.55;;;14.85;;
15331;SDS011;7766;51.534;6.722;2023-04-08T06:10:48;18.00;;;14.90;;